createdAt,value
2018-05-01T00:01:37.349Z,10.03
2018-05-01T00:04:04.870Z,9.90
2018-05-01T00:06:32.829Z,9.40
2018-05-01T00:09:00.485Z,10.40
2018-05-01T00:11:28.026Z,8.00
2018-05-01T00:13:55.590Z,9.23
2018-05-01T00:16:23.113Z,7.50
2018-05-01T00:18:50.802Z,8.33
2018-05-01T00:21:18.322Z,8.70
2018-05-01T00:23:45.846Z,7.50
2018-05-01T00:26:13.385Z,7.17
2018-05-01T00:28:40.901Z,8.27
2018-05-01T00:31:08.446Z,9.20
2018-05-01T00:33:35.985Z,6.07
2018-05-01T00:36:03.646Z,6.60
2018-05-01T00:38:31.161Z,6.87
2018-05-01T00:40:58.677Z,8.40
2018-05-01T00:43:26.230Z,7.00
2018-05-01T00:45:54.101Z,3.00
2018-05-01T00:48:21.627Z,6.30
2018-05-01T00:50:49.137Z,4.97
2018-05-01T00:53:16.819Z,4.77
2018-05-01T00:55:44.329Z,4.67
2018-05-01T00:58:11.847Z,3.80
2018-05-01T01:00:39.471Z,4.07
2018-05-01T01:03:06.993Z,2.30
2018-05-01T01:05:34.697Z,3.07
2018-05-01T01:08:02.213Z,2.27
2018-05-01T01:10:29.914Z,2.30
2018-05-01T01:12:57.913Z,2.30
2018-05-01T01:15:25.425Z,1.73
2018-05-01T01:17:52.936Z,1.70
2018-05-01T01:20:20.478Z,2.10
2018-05-01T01:22:47.993Z,1.73
2018-05-01T01:25:15.941Z,1.70
2018-05-01T01:27:43.451Z,1.60
2018-05-01T01:30:10.961Z,2.13
2018-05-01T01:32:38.548Z,1.07
2018-05-01T01:35:05.514Z,1.00
2018-05-01T01:37:32.569Z,1.33
2018-05-01T01:39:59.541Z,1.53
2018-05-01T01:42:26.509Z,1.40
2018-05-01T01:44:53.505Z,1.87
2018-05-01T01:47:20.480Z,1.43
2018-05-01T01:49:47.622Z,1.67
2018-05-01T01:52:14.589Z,1.80
2018-05-01T01:54:41.561Z,1.70
2018-05-01T01:57:08.567Z,2.30
2018-05-01T01:59:35.535Z,1.40
2018-05-01T02:02:02.525Z,1.27
2018-05-01T02:04:29.497Z,1.30
2018-05-01T02:06:56.507Z,2.07
2018-05-01T02:09:23.477Z,1.40
2018-05-01T02:11:50.487Z,2.60
2018-05-01T02:14:17.477Z,1.70
2018-05-01T02:16:44.469Z,1.00
2018-05-01T02:19:11.441Z,1.03
2018-05-01T02:21:38.474Z,2.20
2018-05-01T02:24:05.450Z,1.70
2018-05-01T02:26:32.424Z,1.50
2018-05-01T02:28:59.421Z,1.70
2018-05-01T02:31:26.398Z,1.40
2018-05-01T02:33:53.403Z,1.23
2018-05-01T02:36:20.383Z,1.00
2018-05-01T02:38:47.381Z,0.83
2018-05-01T02:41:14.442Z,1.43
2018-05-01T02:43:41.383Z,1.13
2018-05-01T02:46:08.382Z,1.10
2018-05-01T02:48:35.353Z,1.23
2018-05-01T02:51:02.383Z,0.83
2018-05-01T02:53:29.357Z,1.67
2018-05-01T02:55:56.341Z,1.20
2018-05-01T02:58:23.378Z,1.10
2018-05-01T03:00:50.354Z,1.10
2018-05-01T03:03:17.335Z,0.70
2018-05-01T03:05:44.330Z,0.70
2018-05-01T03:08:11.318Z,1.50
2018-05-01T03:10:38.486Z,2.10
2018-05-01T03:13:05.466Z,1.80
2018-05-01T03:15:32.437Z,1.37
2018-05-01T03:17:59.885Z,0.80
2018-05-01T03:20:26.886Z,1.43
2018-05-01T03:22:53.857Z,1.20
2018-05-01T03:25:20.944Z,1.03
2018-05-01T03:27:47.899Z,0.90
2018-05-01T03:30:14.865Z,0.90
2018-05-01T03:32:41.861Z,0.80
2018-05-01T03:35:08.864Z,0.80
2018-05-01T03:37:35.834Z,1.20
2018-05-01T03:40:03.336Z,0.70
2018-05-01T03:42:30.350Z,1.37
2018-05-01T03:44:57.328Z,1.43
2018-05-01T03:47:24.329Z,1.00
2018-05-01T03:49:51.329Z,1.00
2018-05-01T03:52:18.305Z,1.07
2018-05-01T03:54:45.785Z,1.13
2018-05-01T03:57:12.772Z,0.70
2018-05-01T03:59:39.746Z,1.00
2018-05-01T04:02:06.757Z,1.40
2018-05-01T04:04:33.794Z,0.90
2018-05-01T04:07:00.765Z,1.30
2018-05-01T04:09:27.737Z,1.20
2018-05-01T04:11:54.743Z,1.30
2018-05-01T04:14:21.737Z,1.40
2018-05-01T04:16:48.747Z,1.10
2018-05-01T04:19:15.975Z,1.20
2018-05-01T04:21:42.981Z,0.93
2018-05-01T04:24:09.977Z,1.53
2018-05-01T04:26:36.983Z,0.77
2018-05-01T04:29:03.978Z,0.90
2018-05-01T04:31:30.973Z,0.90
2018-05-01T04:33:57.937Z,0.90
2018-05-01T04:36:25.045Z,0.90
2018-05-01T04:38:52.018Z,1.73
2018-05-01T04:41:18.994Z,1.03
2018-05-01T04:43:46.190Z,1.23
2018-05-01T04:46:13.169Z,1.00
2018-05-01T04:48:40.148Z,0.73
2018-05-01T04:51:07.206Z,1.30
2018-05-01T04:53:34.186Z,1.20
2018-05-01T04:56:01.162Z,1.40
2018-05-01T04:58:28.372Z,1.33
2018-05-01T05:00:55.354Z,1.33
2018-05-01T05:03:22.336Z,1.33
2018-05-01T05:05:49.344Z,1.10
2018-05-01T05:08:16.373Z,1.27
2018-05-01T05:10:43.377Z,1.00
2018-05-01T05:13:10.354Z,1.90
2018-05-01T05:15:37.372Z,1.67
2018-05-01T05:18:04.378Z,1.73
2018-05-01T05:20:31.349Z,1.00
2018-05-01T05:22:58.570Z,1.50
2018-05-01T05:25:25.565Z,0.73
2018-05-01T05:27:52.537Z,1.63
2018-05-01T05:30:19.534Z,1.13
2018-05-01T05:32:46.525Z,1.00
2018-05-01T05:35:13.554Z,1.57
2018-05-01T05:37:40.526Z,1.10
2018-05-01T05:40:07.502Z,2.30
2018-05-01T05:42:34.506Z,1.23
2018-05-01T05:45:01.534Z,1.33
2018-05-01T05:47:28.515Z,1.37
2018-05-01T05:49:55.489Z,1.70
2018-05-01T05:52:22.607Z,2.40
2018-05-01T05:54:49.580Z,1.57
2018-05-01T05:57:16.557Z,1.07
2018-05-01T05:59:43.575Z,1.90
2018-05-01T06:02:10.549Z,1.23
2018-05-01T06:04:37.526Z,1.60
2018-05-01T06:07:04.570Z,2.00
2018-05-01T06:09:31.554Z,1.37
2018-05-01T06:11:58.531Z,1.90
2018-05-01T06:14:25.934Z,1.33
2018-05-01T06:16:52.918Z,1.63
2018-05-01T06:19:20.779Z,1.87
2018-05-01T06:21:47.860Z,2.17
2018-05-01T06:24:14.798Z,2.00
2018-05-01T06:26:41.798Z,1.77
2018-05-01T06:29:08.806Z,2.60
2018-05-01T06:31:35.815Z,1.43
2018-05-01T06:34:02.815Z,0.90
2018-05-01T06:36:29.791Z,2.40
2018-05-01T06:38:56.795Z,2.00
2018-05-01T06:41:23.778Z,2.50
2018-05-01T06:43:50.876Z,2.23
2018-05-01T06:46:17.794Z,1.50
2018-05-01T06:48:44.769Z,1.97
2018-05-01T06:51:11.778Z,1.43
2018-05-01T06:53:38.747Z,0.97
2018-05-01T06:56:06.276Z,2.30
2018-05-01T06:58:34.150Z,1.67
2018-05-01T07:01:01.125Z,2.20
2018-05-01T07:03:28.107Z,1.60
2018-05-01T07:05:55.114Z,1.33
2018-05-01T07:08:22.094Z,2.67
2018-05-01T07:10:49.166Z,2.70
2018-05-01T07:13:16.197Z,1.43
2018-05-01T07:15:43.360Z,2.37
2018-05-01T07:18:10.333Z,2.40
2018-05-01T07:20:37.305Z,2.47
2018-05-01T07:23:04.333Z,2.57
2018-05-01T07:25:31.408Z,2.40
2018-05-01T07:27:58.422Z,2.83
2018-05-01T07:30:25.459Z,1.93
2018-05-01T07:32:52.429Z,2.93
2018-05-01T07:35:19.398Z,2.90
2018-05-01T07:37:46.458Z,2.20
2018-05-01T07:40:13.440Z,2.37
2018-05-01T07:42:40.444Z,2.53
2018-05-01T07:45:07.447Z,2.13
2018-05-01T07:47:34.422Z,2.30
2018-05-01T07:50:01.459Z,2.13
2018-05-01T07:52:28.429Z,1.70
2018-05-01T07:54:55.433Z,1.83
2018-05-01T07:57:22.593Z,2.20
2018-05-01T07:59:49.871Z,2.00
2018-05-01T08:02:16.918Z,1.97
2018-05-01T08:04:43.965Z,1.50
2018-05-01T08:07:10.956Z,1.23
2018-05-01T08:09:38.065Z,1.80
2018-05-01T08:12:05.303Z,1.70
2018-05-01T08:14:32.261Z,1.30
2018-05-01T08:16:59.233Z,1.70
2018-05-01T08:19:26.234Z,1.10
2018-05-01T08:21:53.213Z,1.73
2018-05-01T08:24:20.271Z,1.60
2018-05-01T08:26:47.229Z,1.50
2018-05-01T08:29:14.416Z,1.00
2018-05-01T08:31:41.765Z,1.53
2018-05-01T08:34:08.737Z,1.10
2018-05-01T08:36:36.327Z,1.00
2018-05-01T08:39:03.311Z,1.33
2018-05-01T08:41:30.905Z,1.10
2018-05-01T08:43:57.902Z,1.43
2018-05-01T08:46:24.878Z,1.57
2018-05-01T08:48:51.873Z,1.53
2018-05-01T08:51:18.837Z,1.20
2018-05-01T08:53:45.836Z,1.90
2018-05-01T08:56:12.849Z,1.40
2018-05-01T08:58:39.840Z,1.40
2018-05-01T09:01:06.858Z,1.27
2018-05-01T09:03:33.833Z,1.50
2018-05-01T09:06:00.805Z,1.70
2018-05-01T09:08:27.797Z,1.53
2018-05-01T09:10:54.938Z,1.93
2018-05-01T09:13:21.915Z,1.77
2018-05-01T09:15:48.906Z,1.40
2018-05-01T09:18:16.024Z,1.70
2018-05-01T09:20:42.921Z,1.97
2018-05-01T09:23:09.965Z,1.23
2018-05-01T09:25:37.004Z,1.87
2018-05-01T09:28:03.949Z,2.73
2018-05-01T09:30:30.977Z,1.90
2018-05-01T09:32:57.968Z,2.50
2018-05-01T09:35:24.967Z,2.40
2018-05-01T09:37:51.966Z,2.30
2018-05-01T09:40:18.976Z,1.80
2018-05-01T09:42:46.323Z,2.33
2018-05-01T09:45:13.298Z,3.27
2018-05-01T09:47:40.384Z,3.50
2018-05-01T09:50:07.396Z,3.83
2018-05-01T09:52:34.910Z,3.07
2018-05-01T09:55:02.585Z,3.30
2018-05-01T09:57:30.155Z,3.80
2018-05-01T09:59:57.670Z,4.60
2018-05-01T10:02:25.330Z,4.10
2018-05-01T10:04:52.865Z,4.30
2018-05-01T10:07:20.393Z,4.97
2018-05-01T10:09:47.939Z,5.30
2018-05-01T10:12:15.472Z,6.67
2018-05-01T10:14:43.026Z,4.23
2018-05-01T10:17:10.575Z,4.70
2018-05-01T10:19:38.095Z,6.30
2018-05-01T10:22:05.629Z,3.53
2018-05-01T10:24:33.329Z,4.23
2018-05-01T10:27:00.912Z,7.17
2018-05-01T10:29:28.452Z,5.70
2018-05-01T10:31:56.139Z,7.30
2018-05-01T10:34:23.653Z,6.17
2018-05-01T10:36:51.402Z,7.80
2018-05-01T10:39:18.922Z,8.73
2018-05-01T10:41:46.439Z,7.57
2018-05-01T10:44:14.024Z,7.47
2018-05-01T10:46:41.969Z,6.70
2018-05-01T10:49:09.481Z,6.20
2018-05-01T10:51:37.025Z,7.10
2018-05-01T10:54:04.586Z,7.30
2018-05-01T10:56:32.097Z,8.43
2018-05-01T10:58:59.633Z,7.87
2018-05-01T11:01:27.155Z,6.90
2018-05-01T11:03:55.114Z,7.97
2018-05-01T11:06:22.642Z,6.97
2018-05-01T11:08:50.168Z,7.03
2018-05-01T11:11:17.744Z,7.97
2018-05-01T11:13:45.271Z,8.50
2018-05-01T11:16:12.797Z,7.10
2018-05-01T11:18:40.766Z,7.20
2018-05-01T11:21:08.286Z,6.63
2018-05-01T11:23:35.815Z,5.73
2018-05-01T11:26:03.554Z,7.80
2018-05-01T11:28:31.116Z,7.67
2018-05-01T11:30:58.574Z,6.73
2018-05-01T11:33:26.142Z,6.80
2018-05-01T11:35:54.083Z,7.40
2018-05-01T11:38:21.637Z,6.07
2018-05-01T11:40:49.169Z,5.20
2018-05-01T11:43:16.814Z,6.03
2018-05-01T11:45:44.334Z,5.13
2018-05-01T11:48:11.854Z,4.43
2018-05-01T11:50:39.519Z,5.80
2018-05-01T11:53:07.030Z,3.60
2018-05-01T11:55:34.542Z,5.40
2018-05-01T11:58:02.093Z,4.13
2018-05-01T12:00:29.618Z,3.60
2018-05-01T12:02:57.206Z,4.03
2018-05-01T12:05:24.713Z,4.40
2018-05-01T12:07:52.226Z,5.57
2018-05-01T12:10:19.771Z,3.87
2018-05-01T12:12:47.294Z,4.73
2018-05-01T12:15:14.834Z,4.20
2018-05-01T12:17:42.355Z,4.80
2018-05-01T12:20:09.904Z,4.80
2018-05-01T12:22:37.442Z,5.30
2018-05-01T12:25:05.134Z,4.53
2018-05-01T12:27:32.646Z,5.40
2018-05-01T12:30:00.249Z,4.43
2018-05-01T12:32:27.740Z,4.93
2018-05-01T12:34:55.260Z,4.37
2018-05-01T12:37:23.005Z,5.47
2018-05-01T12:39:50.516Z,4.50
2018-05-01T12:42:18.021Z,3.60
2018-05-01T12:44:45.582Z,2.57
2018-05-01T12:47:13.102Z,3.40
2018-05-01T12:49:40.643Z,4.40
2018-05-01T12:52:08.157Z,4.03
2018-05-01T12:54:35.717Z,3.67
2018-05-01T12:57:03.238Z,3.60
2018-05-01T12:59:30.750Z,3.80
2018-05-01T13:01:58.310Z,4.27
2018-05-01T13:04:25.821Z,3.10
2018-05-01T13:06:53.374Z,3.33
2018-05-01T13:09:21.051Z,2.97
2018-05-01T13:11:48.579Z,3.27
2018-05-01T13:14:16.089Z,4.30
2018-05-01T13:16:43.771Z,3.63
2018-05-01T13:19:11.311Z,2.73
2018-05-01T13:21:38.829Z,2.50
2018-05-01T13:24:06.379Z,4.03
2018-05-01T13:26:33.906Z,4.20
2018-05-01T13:29:01.467Z,3.60
2018-05-01T13:31:28.990Z,3.20
2018-05-01T13:33:56.507Z,3.37
2018-05-01T13:36:24.058Z,3.33
2018-05-01T13:38:51.578Z,2.50
2018-05-01T13:41:19.157Z,2.77
2018-05-01T13:43:46.743Z,2.80
2018-05-01T13:46:14.219Z,2.83
2018-05-01T13:48:41.770Z,2.57
2018-05-01T13:51:09.295Z,2.27
2018-05-01T13:53:36.841Z,2.10
2018-05-01T13:56:04.357Z,2.00
2018-05-01T13:58:32.110Z,1.93
2018-05-01T14:00:59.635Z,2.20
2018-05-01T14:03:27.150Z,2.20
2018-05-01T14:05:54.695Z,2.70
2018-05-01T14:08:22.229Z,1.67
2018-05-01T14:10:49.747Z,1.20
2018-05-01T14:13:17.328Z,1.80
2018-05-01T14:15:44.864Z,2.30
2018-05-01T14:18:12.373Z,1.80
2018-05-01T14:20:40.350Z,2.00
2018-05-01T14:23:07.854Z,1.93
2018-05-01T14:25:35.401Z,2.23
2018-05-01T14:28:02.933Z,1.87
2018-05-01T14:30:30.445Z,1.37
2018-05-01T14:32:58.117Z,1.70
2018-05-01T14:35:25.630Z,1.97
2018-05-01T14:37:53.145Z,1.90
2018-05-01T14:40:20.681Z,1.50
2018-05-01T14:42:48.198Z,2.27
2018-05-01T14:45:15.895Z,1.30
2018-05-01T14:47:43.405Z,1.70
2018-05-01T14:50:10.959Z,1.13
2018-05-01T14:52:38.475Z,1.73
2018-05-01T14:55:05.999Z,1.87
2018-05-01T14:57:33.644Z,1.90
2018-05-01T15:00:01.326Z,1.17
2018-05-01T15:02:28.867Z,1.50
2018-05-01T15:04:56.394Z,1.77
2018-05-01T15:07:23.929Z,1.13
2018-05-01T15:09:51.446Z,1.20
2018-05-01T15:12:19.391Z,1.20
2018-05-01T15:14:46.907Z,1.83
2018-05-01T15:17:14.438Z,1.57
2018-05-01T15:19:41.984Z,1.17
2018-05-01T15:22:09.502Z,1.47
2018-05-01T15:24:37.158Z,1.43
2018-05-01T15:27:04.693Z,1.57
2018-05-01T15:29:32.213Z,1.00
2018-05-01T15:31:59.766Z,1.20
2018-05-01T15:34:27.282Z,1.40
2018-05-01T15:36:54.795Z,1.50
2018-05-01T15:39:22.357Z,1.10
2018-05-01T15:41:49.871Z,1.53
2018-05-01T15:44:17.386Z,2.00
2018-05-01T15:46:44.920Z,1.30
2018-05-01T15:49:12.434Z,1.83
2018-05-01T15:51:40.022Z,1.43
2018-05-01T15:54:07.525Z,1.40
2018-05-01T15:56:36.002Z,1.70
2018-05-01T15:59:03.572Z,1.40
2018-05-01T16:01:31.085Z,1.27
2018-05-01T16:03:58.606Z,1.33
2018-05-01T16:06:26.179Z,1.20
2018-05-01T16:08:53.701Z,2.93
2018-05-01T16:11:21.214Z,1.00
2018-05-01T16:13:49.144Z,1.17
2018-05-01T16:16:16.657Z,1.13
2018-05-01T16:18:44.182Z,1.30
2018-05-01T16:21:11.727Z,0.70
2018-05-01T16:23:39.244Z,1.00
2018-05-01T16:26:06.792Z,0.90
2018-05-01T16:28:34.469Z,1.10
2018-05-01T16:31:01.982Z,0.90
2018-05-01T16:33:29.489Z,1.10
2018-05-01T16:35:57.036Z,0.87
2018-05-01T16:38:24.588Z,0.97
2018-05-01T16:40:52.137Z,1.10
2018-05-01T16:43:19.675Z,1.20
2018-05-01T16:45:47.353Z,1.03
2018-05-01T16:48:14.901Z,1.17
2018-05-01T16:50:42.451Z,1.20
2018-05-01T16:53:10.097Z,1.23
2018-05-01T16:55:37.622Z,1.20
2018-05-01T16:58:05.143Z,1.10
2018-05-01T17:00:32.685Z,1.30
2018-05-01T17:03:00.200Z,1.20
2018-05-01T17:05:27.866Z,1.90
2018-05-01T17:07:55.378Z,1.10
2018-05-01T17:10:22.893Z,0.97
2018-05-01T17:12:50.450Z,1.70
2018-05-01T17:15:18.013Z,1.30
2018-05-01T17:17:45.870Z,1.27
2018-05-01T17:20:13.391Z,1.10
2018-05-01T17:22:40.912Z,1.00
2018-05-01T17:25:08.467Z,0.90
2018-05-01T17:27:36.006Z,1.23
2018-05-01T17:30:03.597Z,1.60
2018-05-01T17:32:31.123Z,1.60
2018-05-01T17:34:58.660Z,1.00
2018-05-01T17:37:26.201Z,1.37
2018-05-01T17:39:53.708Z,1.40
2018-05-01T17:42:21.399Z,1.30
2018-05-01T17:44:48.904Z,1.37
2018-05-01T17:47:16.416Z,1.37
2018-05-01T17:49:43.949Z,1.23
2018-05-01T17:52:11.460Z,1.20
2018-05-01T17:54:39.043Z,1.23
2018-05-01T17:57:06.563Z,0.90
2018-05-01T17:59:34.074Z,1.30
2018-05-01T18:02:01.609Z,1.13
2018-05-01T18:04:29.118Z,1.60
2018-05-01T18:06:56.689Z,1.37
2018-05-01T18:09:24.201Z,1.23
2018-05-01T18:11:51.706Z,1.43
2018-05-01T18:14:19.241Z,1.80
2018-05-01T18:16:46.754Z,2.80
2018-05-01T18:19:14.297Z,1.10
2018-05-01T18:21:41.822Z,1.77
2018-05-01T18:24:09.495Z,1.60
2018-05-01T18:26:37.018Z,1.97
2018-05-01T18:29:04.531Z,2.37
2018-05-01T18:31:32.065Z,1.43
2018-05-01T18:33:59.578Z,1.37
2018-05-01T18:36:27.118Z,1.30
2018-05-01T18:38:54.650Z,2.43
2018-05-01T18:41:22.220Z,1.37
2018-05-01T18:43:49.750Z,1.60
2018-05-01T18:46:17.261Z,2.60
2018-05-01T18:48:45.222Z,1.87
2018-05-01T18:51:12.729Z,2.37
2018-05-01T18:53:40.241Z,3.00
2018-05-01T18:56:07.779Z,2.17
2018-05-01T18:58:35.294Z,2.27
2018-05-01T19:01:03.191Z,2.00
2018-05-01T19:03:30.722Z,2.03
2018-05-01T19:05:58.242Z,1.97
2018-05-01T19:08:25.914Z,2.17
2018-05-01T19:10:53.421Z,1.90
2018-05-01T19:13:20.947Z,3.07
2018-05-01T19:15:48.814Z,2.30
2018-05-01T19:18:16.333Z,2.17
2018-05-01T19:20:43.858Z,2.50
2018-05-01T19:23:11.429Z,2.00
2018-05-01T19:25:38.949Z,1.90
2018-05-01T19:28:06.476Z,2.40
2018-05-01T19:30:34.018Z,2.40
2018-05-01T19:33:01.543Z,2.50
2018-05-01T19:35:29.077Z,2.10
2018-05-01T19:37:56.594Z,2.23
2018-05-01T19:40:24.161Z,2.70
2018-05-01T19:42:51.673Z,2.60
2018-05-01T19:45:19.191Z,2.43
2018-05-01T19:47:46.763Z,3.00
2018-05-01T19:50:14.278Z,2.50
2018-05-01T19:52:41.839Z,3.00
2018-05-01T19:55:09.359Z,3.00
2018-05-01T19:57:36.897Z,2.90
2018-05-01T20:00:04.849Z,3.20
2018-05-01T20:02:32.357Z,2.93
2018-05-01T20:04:59.884Z,2.90
2018-05-01T20:07:27.430Z,3.07
2018-05-01T20:09:55.446Z,2.97
2018-05-01T20:12:22.953Z,3.47
2018-05-01T20:14:50.490Z,3.50
2018-05-01T20:17:18.027Z,3.40
2018-05-01T20:19:45.608Z,3.43
2018-05-01T20:22:13.121Z,3.03
2018-05-01T20:24:41.088Z,2.93
2018-05-01T20:27:08.607Z,3.00
2018-05-01T20:29:36.132Z,3.00
2018-05-01T20:32:03.665Z,3.30
2018-05-01T20:34:31.184Z,2.90
2018-05-01T20:36:59.062Z,3.20
2018-05-01T20:39:26.595Z,2.97
2018-05-01T20:41:54.109Z,3.40
2018-05-01T20:44:21.671Z,3.50
2018-05-01T20:46:49.225Z,3.70
2018-05-01T20:49:16.738Z,3.50
2018-05-01T20:51:44.402Z,3.87
2018-05-01T20:54:11.914Z,4.27
2018-05-01T20:56:39.434Z,4.03
2018-05-01T20:59:07.336Z,4.10
2018-05-01T21:01:34.871Z,4.70
2018-05-01T21:04:02.453Z,3.23
2018-05-01T21:06:29.993Z,4.33
2018-05-01T21:08:57.530Z,3.70
2018-05-01T21:11:25.071Z,4.07
2018-05-01T21:13:52.586Z,4.83
2018-05-01T21:16:20.117Z,4.30
2018-05-01T21:18:47.638Z,4.10
2018-05-01T21:21:15.189Z,4.27
2018-05-01T21:23:42.727Z,3.97
2018-05-01T21:26:10.306Z,4.60
2018-05-01T21:28:37.822Z,4.03
2018-05-01T21:31:05.399Z,4.77
2018-05-01T21:33:33.052Z,4.60
2018-05-01T21:36:00.580Z,5.27
2018-05-01T21:38:28.089Z,4.60
2018-05-01T21:40:55.622Z,4.20
2018-05-01T21:43:23.140Z,4.67
2018-05-01T21:45:50.687Z,4.30
2018-05-01T21:48:18.247Z,5.50
2018-05-01T21:50:46.253Z,4.40
2018-05-01T21:53:13.765Z,4.90
2018-05-01T21:55:41.284Z,5.23
2018-05-01T21:58:08.821Z,5.30
2018-05-01T22:00:36.333Z,4.90
2018-05-01T22:03:03.902Z,4.90
2018-05-01T22:05:31.410Z,5.03
2018-05-01T22:07:58.917Z,5.03
2018-05-01T22:10:26.479Z,4.70
2018-05-01T22:12:54.411Z,4.47
2018-05-01T22:15:21.930Z,4.67
2018-05-01T22:17:49.636Z,4.80
2018-05-01T22:20:17.173Z,4.33
2018-05-01T22:22:44.694Z,4.90
2018-05-01T22:25:12.234Z,5.23
2018-05-01T22:27:39.953Z,4.40
2018-05-01T22:30:07.469Z,4.43
2018-05-01T22:32:34.983Z,4.50
2018-05-01T22:35:02.518Z,4.30
2018-05-01T22:37:30.057Z,4.33
2018-05-01T22:39:57.727Z,4.90
2018-05-01T22:42:25.243Z,4.57
2018-05-01T22:44:52.768Z,4.30
2018-05-01T22:47:20.305Z,5.50
2018-05-01T22:49:47.843Z,4.80
2018-05-01T22:52:15.381Z,4.20
2018-05-01T22:54:42.904Z,4.40
2018-05-01T22:57:10.444Z,4.73
2018-05-01T22:59:37.958Z,4.57
2018-05-01T23:02:05.501Z,4.67
2018-05-01T23:04:33.017Z,5.03
2018-05-01T23:07:00.551Z,4.10
2018-05-01T23:09:28.290Z,4.40
2018-05-01T23:11:55.807Z,4.90
2018-05-01T23:14:23.334Z,3.53
2018-05-01T23:16:51.217Z,4.40
2018-05-01T23:19:18.734Z,4.40
2018-05-01T23:21:46.257Z,4.80
2018-05-01T23:24:13.818Z,5.07
2018-05-01T23:26:41.346Z,4.33
2018-05-01T23:29:08.876Z,4.80
2018-05-01T23:31:36.413Z,4.00
2018-05-01T23:34:03.949Z,4.40
2018-05-01T23:36:31.570Z,3.63
2018-05-01T23:38:59.172Z,3.27
2018-05-01T23:41:27.022Z,4.10
2018-05-01T23:43:54.545Z,4.67
2018-05-01T23:46:22.062Z,3.80
2018-05-01T23:48:49.621Z,3.60
2018-05-01T23:51:17.133Z,3.90
2018-05-01T23:53:44.797Z,3.50
2018-05-01T23:56:12.377Z,3.57
2018-05-01T23:58:39.919Z,4.17
